createdAt,value
2023-09-06T00:00:12.868Z,23.80
2023-09-06T00:02:39.628Z,31.25
2023-09-06T00:05:06.685Z,29.23
2023-09-06T00:07:33.509Z,27.85
2023-09-06T00:10:00.430Z,30.67
2023-09-06T00:12:27.328Z,28.65
2023-09-06T00:14:56.182Z,30.17
2023-09-06T00:17:22.979Z,31.65
2023-09-06T00:19:49.740Z,32.67
2023-09-06T00:22:16.570Z,32.55
2023-09-06T00:24:43.454Z,31.48
2023-09-06T00:27:10.206Z,28.95
2023-09-06T00:29:36.996Z,31.15
2023-09-06T00:32:04.108Z,30.50
2023-09-06T00:34:32.716Z,25.95
2023-09-06T00:36:59.514Z,31.17
2023-09-06T00:39:29.406Z,30.75
2023-09-06T00:41:56.314Z,27.50
2023-09-06T00:44:24.187Z,31.10
2023-09-06T00:46:51.007Z,32.03
2023-09-06T00:49:17.828Z,29.85
2023-09-06T00:51:44.618Z,31.05
2023-09-06T00:54:11.473Z,37.15
2023-09-06T00:56:41.455Z,32.33
2023-09-06T00:59:11.783Z,35.63
2023-09-06T01:01:38.685Z,33.05
2023-09-06T01:04:05.780Z,32.03
2023-09-06T01:06:32.693Z,32.53
2023-09-06T01:08:59.923Z,33.90
2023-09-06T01:11:28.006Z,35.42
2023-09-06T01:13:56.188Z,32.88
2023-09-06T01:16:36.147Z,41.97
2023-09-06T01:19:03.093Z,33.95
2023-09-06T01:21:59.619Z,32.42
2023-09-06T01:24:26.796Z,36.80
2023-09-06T01:26:53.576Z,43.38
2023-09-06T01:29:20.366Z,33.90
2023-09-06T01:31:47.878Z,32.13
2023-09-06T01:34:14.804Z,41.67
2023-09-06T01:36:42.044Z,36.38
2023-09-06T01:39:11.575Z,43.70
2023-09-06T01:41:38.441Z,39.22
2023-09-06T01:44:05.531Z,33.13
2023-09-06T01:46:32.465Z,36.22
2023-09-06T01:49:01.142Z,35.72
2023-09-06T01:51:28.026Z,41.92
2023-09-06T01:53:54.794Z,43.38
2023-09-06T01:56:21.649Z,42.47
2023-09-06T01:58:48.534Z,37.13
2023-09-06T02:01:15.449Z,40.05
2023-09-06T02:03:42.619Z,37.35
2023-09-06T02:06:09.675Z,40.35
2023-09-06T02:08:36.915Z,34.00
2023-09-06T02:11:03.802Z,27.88
2023-09-06T02:13:30.565Z,22.60
2023-09-06T02:15:57.435Z,20.88
2023-09-06T02:18:27.293Z,20.38
2023-09-06T02:20:57.269Z,17.33
2023-09-06T02:23:24.162Z,16.25
2023-09-06T02:25:50.959Z,14.05
2023-09-06T02:28:18.685Z,12.32
2023-09-06T02:30:45.696Z,14.90
2023-09-06T02:33:15.551Z,14.77
2023-09-06T02:35:42.677Z,13.35
2023-09-06T02:38:10.106Z,14.35
2023-09-06T02:40:37.253Z,16.00
2023-09-06T02:43:05.668Z,15.35
2023-09-06T02:45:38.468Z,16.77
2023-09-06T02:48:14.479Z,13.73
2023-09-06T02:50:41.687Z,12.40
2023-09-06T02:53:21.095Z,16.52
2023-09-06T02:55:49.332Z,15.55
2023-09-06T02:58:19.680Z,14.73
2023-09-06T03:00:50.384Z,16.08
2023-09-06T03:03:17.572Z,17.08
2023-09-06T03:05:44.668Z,17.45
2023-09-06T03:08:13.221Z,13.75
2023-09-06T03:10:45.711Z,14.18
2023-09-06T03:13:12.731Z,15.70
2023-09-06T03:15:44.816Z,17.23
2023-09-06T03:18:12.091Z,16.08
2023-09-06T03:20:45.055Z,16.98
2023-09-06T03:23:20.697Z,19.27
2023-09-06T03:25:59.592Z,18.42
2023-09-06T03:28:27.747Z,17.88
2023-09-06T03:30:59.634Z,21.10
2023-09-06T03:33:27.749Z,21.50
2023-09-06T03:35:54.609Z,21.92
2023-09-06T03:38:26.420Z,21.13
2023-09-06T03:40:53.696Z,20.83
2023-09-06T03:43:31.929Z,20.45
2023-09-06T03:45:59.926Z,22.33
2023-09-06T03:48:29.004Z,21.40
2023-09-06T03:50:57.545Z,19.85
2023-09-06T03:53:27.744Z,21.30
2023-09-06T03:55:58.453Z,21.35
2023-09-06T03:58:26.598Z,21.35
2023-09-06T04:00:54.097Z,23.27
2023-09-06T04:03:21.628Z,22.20
2023-09-06T04:05:48.671Z,22.00
2023-09-06T04:08:19.263Z,21.23
2023-09-06T04:10:46.685Z,19.50
2023-09-06T04:13:14.526Z,21.02
2023-09-06T04:15:44.091Z,16.42
2023-09-06T04:18:11.846Z,14.95
2023-09-06T04:20:40.724Z,16.30
2023-09-06T04:23:08.910Z,19.95
2023-09-06T04:25:42.899Z,16.80
2023-09-06T04:28:10.698Z,13.88
2023-09-06T04:30:38.232Z,17.85
2023-09-06T04:33:06.806Z,14.38
2023-09-06T04:35:44.349Z,14.60
2023-09-06T04:38:19.896Z,13.20
2023-09-06T04:40:47.505Z,14.73
2023-09-06T04:43:15.462Z,15.82
2023-09-06T04:45:42.290Z,16.92
2023-09-06T04:48:13.639Z,17.35
2023-09-06T04:50:46.408Z,20.40
2023-09-06T04:53:13.785Z,18.80
2023-09-06T04:55:41.285Z,18.75
2023-09-06T04:58:12.308Z,16.25
2023-09-06T05:00:44.766Z,19.33
2023-09-06T05:03:18.701Z,19.73
2023-09-06T05:08:51.545Z,20.55
2023-09-06T05:11:18.310Z,21.52
2023-09-06T05:13:45.231Z,18.48
2023-09-06T05:16:12.051Z,20.25
2023-09-06T05:18:38.861Z,19.52
2023-09-06T05:21:06.197Z,21.00
2023-09-06T05:23:37.301Z,22.85
2023-09-06T05:26:04.654Z,20.67
2023-09-06T05:28:33.389Z,21.90
2023-09-06T05:31:02.387Z,17.33
2023-09-06T05:33:29.161Z,21.23
2023-09-06T05:35:55.899Z,16.08
2023-09-06T05:38:22.665Z,20.90
2023-09-06T05:40:51.611Z,20.08
2023-09-06T05:43:18.457Z,20.17
2023-09-06T05:45:45.212Z,18.00
2023-09-06T05:48:27.009Z,23.25
2023-09-06T05:50:53.963Z,18.48
2023-09-06T05:53:20.796Z,20.88
2023-09-06T05:55:50.991Z,19.52
2023-09-06T05:58:17.775Z,20.67
2023-09-06T06:00:45.148Z,19.67
2023-09-06T06:03:12.203Z,19.73
2023-09-06T06:05:39.978Z,20.27
2023-09-06T06:08:11.015Z,20.42
2023-09-06T06:10:38.367Z,19.73
2023-09-06T06:13:06.372Z,18.17
2023-09-06T06:15:33.272Z,23.15
2023-09-06T06:18:00.105Z,21.00
2023-09-06T06:20:38.482Z,18.02
2023-09-06T06:23:09.334Z,23.10
2023-09-06T06:25:37.089Z,28.55
2023-09-06T06:28:04.294Z,22.70
2023-09-06T06:30:31.393Z,17.38
2023-09-06T06:33:01.569Z,18.75
2023-09-06T06:35:28.991Z,21.15
2023-09-06T06:37:56.692Z,21.30
2023-09-06T06:40:25.586Z,22.25
2023-09-06T06:42:52.917Z,28.20
2023-09-06T06:45:19.908Z,28.15
2023-09-06T06:47:47.598Z,30.83
2023-09-06T06:50:15.063Z,31.00
2023-09-06T06:52:45.763Z,34.35
2023-09-06T06:55:12.986Z,41.55
2023-09-06T06:57:39.892Z,46.72
2023-09-06T07:00:08.742Z,43.85
2023-09-06T07:02:36.297Z,38.33
2023-09-06T07:05:03.703Z,36.00
2023-09-06T07:07:30.634Z,34.22
2023-09-06T07:09:57.452Z,36.90
2023-09-06T07:12:24.918Z,32.08
2023-09-06T07:14:53.187Z,35.40
2023-09-06T07:17:20.188Z,30.60
2023-09-06T07:19:47.088Z,30.35
2023-09-06T07:22:15.922Z,39.28
2023-09-06T07:24:45.811Z,33.72
2023-09-06T07:27:12.682Z,40.60
2023-09-06T07:29:40.738Z,31.33
2023-09-06T07:32:07.605Z,34.47
2023-09-06T07:34:34.520Z,32.85
2023-09-06T07:37:01.547Z,33.25
2023-09-06T07:39:28.480Z,37.63
2023-09-06T07:41:56.894Z,32.92
2023-09-06T07:44:24.031Z,35.78
2023-09-06T07:46:52.133Z,34.25
2023-09-06T07:49:20.053Z,35.10
2023-09-06T07:51:47.067Z,30.52
2023-09-06T07:54:13.894Z,32.03
2023-09-06T07:56:40.930Z,33.35
2023-09-06T07:59:10.316Z,34.90
2023-09-06T08:01:37.131Z,32.72
2023-09-06T08:04:04.338Z,29.02
2023-09-06T08:06:31.533Z,33.13
2023-09-06T08:08:59.709Z,34.28
2023-09-06T08:11:26.960Z,33.33
2023-09-06T08:13:54.172Z,32.90
2023-09-06T08:16:21.310Z,33.97
2023-09-06T08:18:48.678Z,33.65
2023-09-06T08:21:17.100Z,32.17
2023-09-06T08:23:45.052Z,32.90
2023-09-06T08:26:15.179Z,36.50
2023-09-06T08:28:42.343Z,32.63
2023-09-06T08:31:09.456Z,32.80
2023-09-06T08:33:36.647Z,38.30
2023-09-06T08:36:06.621Z,36.65
2023-09-06T08:38:34.449Z,38.85
2023-09-06T08:41:02.576Z,37.35
2023-09-06T08:43:36.429Z,38.35
2023-09-06T08:48:35.171Z,34.95
2023-09-06T08:51:02.388Z,35.40
2023-09-06T08:53:29.882Z,35.53
2023-09-06T08:56:01.546Z,34.22
2023-09-06T08:58:29.476Z,33.55
2023-09-06T09:00:57.160Z,31.02
2023-09-06T09:03:24.684Z,30.08
2023-09-06T09:05:51.901Z,31.13
2023-09-06T09:08:18.787Z,32.47
2023-09-06T09:10:45.712Z,29.67
2023-09-06T09:13:16.952Z,31.88
2023-09-06T09:15:44.034Z,26.55
2023-09-06T09:18:12.523Z,32.08
2023-09-06T09:20:42.709Z,31.02
2023-09-06T09:23:20.747Z,28.30
2023-09-06T09:25:53.560Z,28.95
2023-09-06T09:28:21.508Z,28.30
2023-09-06T09:30:49.588Z,26.23
2023-09-06T09:33:16.688Z,27.58
2023-09-06T09:35:50.714Z,24.85
2023-09-06T09:38:17.537Z,27.40
2023-09-06T09:43:14.607Z,25.83
2023-09-06T09:45:44.438Z,23.90
2023-09-06T09:48:12.228Z,23.60
2023-09-06T09:50:43.070Z,24.50
2023-09-06T09:53:34.524Z,22.88
2023-09-06T09:56:00.995Z,21.20
2023-09-06T09:58:28.603Z,20.83
2023-09-06T10:01:00.427Z,19.90
2023-09-06T10:03:29.462Z,17.83
2023-09-06T10:05:56.822Z,19.95
2023-09-06T10:08:26.750Z,20.85
2023-09-06T10:10:53.692Z,16.88
2023-09-06T10:13:20.825Z,16.65
2023-09-06T10:16:02.656Z,15.43
2023-09-06T10:18:33.398Z,16.95
2023-09-06T10:21:01.103Z,16.80
2023-09-06T10:23:33.039Z,15.07
2023-09-06T10:26:10.218Z,13.02
2023-09-06T10:28:51.004Z,16.13
2023-09-06T10:31:46.490Z,16.23
2023-09-06T11:10:17.432Z,14.68
2023-09-06T11:15:06.726Z,14.93
2023-09-06T11:30:43.072Z,9.82
2023-09-06T11:33:14.588Z,11.38
2023-09-06T11:35:43.793Z,15.50
2023-09-06T11:38:12.273Z,14.23
2023-09-06T11:40:42.845Z,9.30
2023-09-06T11:43:20.221Z,8.20
2023-09-06T11:45:49.811Z,9.98
2023-09-06T11:48:21.149Z,9.80
2023-09-06T11:50:51.342Z,6.63
2023-09-06T11:53:21.477Z,5.55
2023-09-06T11:55:50.690Z,7.40
2023-09-06T11:58:23.041Z,9.45
2023-09-06T12:00:51.757Z,7.47
2023-09-06T12:03:22.075Z,5.75
2023-09-06T12:05:51.416Z,6.65
2023-09-06T12:08:23.433Z,12.05
2023-09-06T12:10:55.787Z,7.97
2023-09-06T12:13:33.359Z,6.38
2023-09-06T12:16:00.866Z,6.07
2023-09-06T12:18:34.390Z,5.13
2023-09-06T12:21:01.929Z,6.20
2023-09-06T12:23:35.656Z,7.82
2023-09-06T12:26:04.478Z,8.93
2023-09-06T12:28:32.921Z,7.80
2023-09-06T12:31:16.527Z,6.60
2023-09-06T12:33:46.956Z,6.65
2023-09-06T12:36:15.225Z,7.32
2023-09-06T12:38:44.857Z,7.80
2023-09-06T12:41:13.563Z,5.45
2023-09-06T12:43:41.047Z,7.63
2023-09-06T12:46:08.482Z,5.90
2023-09-06T12:48:38.660Z,7.22
2023-09-06T12:51:10.750Z,8.98
2023-09-06T12:53:40.270Z,7.57
2023-09-06T12:56:10.297Z,7.03
2023-09-06T12:58:40.527Z,5.13
2023-09-06T13:01:12.308Z,6.13
2023-09-06T13:03:45.322Z,5.95
2023-09-06T13:06:12.810Z,7.57
2023-09-06T13:08:41.075Z,9.40
2023-09-06T13:11:08.433Z,6.97
2023-09-06T13:13:35.965Z,6.70
2023-09-06T13:16:02.887Z,5.40
2023-09-06T13:18:30.665Z,4.93
2023-09-06T13:20:58.793Z,5.05
2023-09-06T13:23:25.672Z,5.30
2023-09-06T13:25:52.694Z,10.85
2023-09-06T13:28:19.677Z,8.18
2023-09-06T13:30:48.700Z,4.32
2023-09-06T13:33:15.566Z,10.25
2023-09-06T13:35:43.593Z,7.00
2023-09-06T13:38:10.487Z,9.90
2023-09-06T13:40:37.510Z,11.07
2023-09-06T13:43:04.667Z,7.45
2023-09-06T13:45:31.654Z,6.40
2023-09-06T13:47:58.698Z,5.78
2023-09-06T13:50:25.729Z,6.00
2023-09-06T13:52:52.730Z,6.70
2023-09-06T13:55:22.393Z,4.97
2023-09-06T13:57:49.294Z,9.65
2023-09-06T14:00:17.689Z,6.95
2023-09-06T14:02:44.771Z,9.10
2023-09-06T14:05:11.891Z,10.20
2023-09-06T14:07:38.842Z,10.60
2023-09-06T14:10:05.794Z,8.15
2023-09-06T14:12:32.670Z,13.75
2023-09-06T14:14:59.875Z,8.40
2023-09-06T14:17:26.915Z,6.93
2023-09-06T14:19:53.839Z,9.27
2023-09-06T14:22:20.908Z,5.70
2023-09-06T14:24:48.044Z,10.32
2023-09-06T14:27:16.707Z,11.55
2023-09-06T14:29:43.704Z,4.95
2023-09-06T14:32:10.641Z,6.13
2023-09-06T14:34:37.505Z,6.43
2023-09-06T14:37:04.905Z,5.68
2023-09-06T14:39:33.766Z,10.88
2023-09-06T14:42:00.668Z,6.95
2023-09-06T14:44:27.552Z,9.52
2023-09-06T14:46:57.626Z,10.15
2023-09-06T14:49:24.628Z,13.52
2023-09-06T14:51:51.606Z,6.20
2023-09-06T14:54:18.635Z,12.48
2023-09-06T14:56:45.687Z,13.80
2023-09-06T14:59:12.724Z,9.68
2023-09-06T15:01:39.970Z,9.52
2023-09-06T15:04:07.472Z,7.25
2023-09-06T15:06:52.577Z,11.70
2023-09-06T15:09:22.127Z,17.20
2023-09-06T15:11:49.906Z,8.70
2023-09-06T15:14:16.952Z,13.57
2023-09-06T15:16:43.821Z,12.48
2023-09-06T15:19:11.287Z,18.48
2023-09-06T15:21:41.033Z,9.77
2023-09-06T15:24:08.683Z,14.93
2023-09-06T15:26:37.719Z,9.57
2023-09-06T15:29:04.653Z,13.45
2023-09-06T15:31:32.417Z,10.90
2023-09-06T15:33:59.461Z,7.72
2023-09-06T15:36:30.870Z,12.05
2023-09-06T15:38:57.815Z,13.85
2023-09-06T15:41:24.768Z,13.90
2023-09-06T15:43:51.640Z,11.68
2023-09-06T15:46:21.890Z,12.55
2023-09-06T15:48:51.625Z,6.97
2023-09-06T15:51:18.652Z,7.22
2023-09-06T15:53:45.666Z,7.57
2023-09-06T15:56:12.714Z,8.70
2023-09-06T15:58:42.770Z,6.47
2023-09-06T16:01:09.782Z,9.75
2023-09-06T16:03:36.804Z,5.88
2023-09-06T16:06:03.810Z,8.93
2023-09-06T16:08:30.955Z,7.45
2023-09-06T16:10:58.257Z,6.60
2023-09-06T16:13:25.363Z,10.88
2023-09-06T16:15:52.245Z,7.18
2023-09-06T16:18:19.409Z,13.68
2023-09-06T16:20:46.285Z,8.20
2023-09-06T16:23:25.047Z,8.27
2023-09-06T16:25:51.978Z,6.85
2023-09-06T16:29:37.017Z,9.80
2023-09-06T16:31:39.214Z,6.40
2023-09-06T16:34:12.058Z,9.38
2023-09-06T16:36:39.905Z,7.55
2023-09-06T16:39:15.783Z,9.68
2023-09-06T16:41:56.966Z,6.60
2023-09-06T16:44:24.371Z,8.43
2023-09-06T16:47:09.377Z,6.40
2023-09-06T16:49:36.675Z,7.95
2023-09-06T16:55:40.787Z,10.97
2023-09-06T16:58:10.692Z,9.65
2023-09-06T16:58:41.260Z,6.22
2023-09-06T17:01:47.467Z,10.50
2023-09-06T17:04:16.814Z,5.18
2023-09-06T17:07:21.457Z,6.00
2023-09-06T17:10:29.594Z,6.43
2023-09-06T17:13:17.799Z,5.05
2023-09-06T17:16:34.218Z,8.55
2023-09-06T17:22:40.686Z,4.95
2023-09-06T17:25:11.170Z,10.95
2023-09-06T17:27:38.335Z,8.10
2023-09-06T17:30:43.923Z,5.57
2023-09-06T17:36:21.832Z,5.90
2023-09-06T17:38:49.093Z,5.97
2023-09-06T17:41:16.617Z,6.03
2023-09-06T17:43:46.910Z,4.13
2023-09-06T17:46:13.967Z,4.70
2023-09-06T17:48:45.783Z,7.75
2023-09-06T17:51:13.009Z,5.93
2023-09-06T17:53:41.330Z,5.95
2023-09-06T17:56:16.354Z,6.28
2023-09-06T17:58:50.682Z,7.78
2023-09-06T18:01:20.530Z,7.60
2023-09-06T18:03:52.863Z,5.15
2023-09-06T18:06:27.243Z,6.93
2023-09-06T18:09:08.201Z,4.90
2023-09-06T18:11:36.129Z,6.70
2023-09-06T18:14:09.072Z,4.65
2023-09-06T18:16:37.449Z,7.70
2023-09-06T18:19:04.609Z,5.10
2023-09-06T18:21:31.792Z,3.72
2023-09-06T18:24:04.362Z,4.50
2023-09-06T18:26:31.342Z,5.03
2023-09-06T18:28:58.384Z,5.75
2023-09-06T18:31:25.690Z,8.20
2023-09-06T18:33:52.629Z,5.15
2023-09-06T18:36:21.899Z,9.18
2023-09-06T18:38:49.448Z,4.80
2023-09-06T18:41:16.402Z,6.47
2023-09-06T18:43:43.383Z,6.32
2023-09-06T18:46:10.421Z,5.20
2023-09-06T18:48:39.609Z,4.80
2023-09-06T18:51:09.973Z,5.05
2023-09-06T18:53:37.860Z,4.85
2023-09-06T18:56:05.826Z,7.18
2023-09-06T18:58:34.433Z,6.93
2023-09-06T19:01:01.747Z,7.20
2023-09-06T19:03:28.979Z,5.07
2023-09-06T19:05:58.703Z,5.25
2023-09-06T19:08:25.599Z,5.60
2023-09-06T19:10:52.707Z,4.78
2023-09-06T19:13:22.624Z,8.70
2023-09-06T19:15:52.368Z,5.82
2023-09-06T19:18:19.611Z,8.05
2023-09-06T19:20:46.597Z,8.18
2023-09-06T19:23:22.029Z,8.30
2023-09-06T19:25:55.571Z,7.13
2023-09-06T19:28:23.585Z,8.18
2023-09-06T19:30:57.983Z,6.35
2023-09-06T19:33:25.874Z,6.30
2023-09-06T19:35:53.629Z,8.05
2023-09-06T19:38:23.444Z,6.82
2023-09-06T19:40:53.307Z,7.15
2023-09-06T19:43:46.721Z,7.80
2023-09-06T19:46:13.810Z,8.63
2023-09-06T19:48:54.611Z,9.80
2023-09-06T19:51:28.981Z,12.23
2023-09-06T19:53:56.073Z,7.75
2023-09-06T19:56:24.206Z,9.10
2023-09-06T19:58:54.498Z,7.03
2023-09-06T20:01:21.829Z,13.65
2023-09-06T20:03:49.052Z,9.02
2023-09-06T20:06:21.910Z,11.93
2023-09-06T20:08:48.901Z,11.63
2023-09-06T20:11:25.467Z,12.02
2023-09-06T20:13:53.701Z,8.65
2023-09-06T20:16:21.444Z,9.10
2023-09-06T20:18:50.592Z,9.77
2023-09-06T20:21:17.542Z,9.68
2023-09-06T20:23:46.324Z,8.18
2023-09-06T20:26:19.323Z,10.95
2023-09-06T20:28:55.287Z,10.70
2023-09-06T20:31:22.684Z,10.68
2023-09-06T20:33:49.650Z,12.73
2023-09-06T20:36:16.742Z,9.32
2023-09-06T20:38:46.706Z,10.27
2023-09-06T20:41:14.171Z,10.50
2023-09-06T20:43:44.020Z,12.60
2023-09-06T20:46:33.430Z,15.50
2023-09-06T20:49:00.894Z,14.00
2023-09-06T20:51:28.373Z,11.40
2023-09-06T20:53:55.413Z,18.40
2023-09-06T20:56:22.161Z,13.20
2023-09-06T20:58:51.825Z,17.10
2023-09-06T21:01:25.032Z,15.32
2023-09-06T21:03:53.037Z,16.00
2023-09-06T21:06:21.215Z,14.05
2023-09-06T21:08:48.392Z,15.88
2023-09-06T21:11:15.540Z,13.18
2023-09-06T21:13:42.572Z,17.23
2023-09-06T21:16:21.165Z,23.30
2023-09-06T21:18:48.488Z,23.90
2023-09-06T21:21:18.041Z,24.92
2023-09-06T21:23:47.708Z,17.63
2023-09-06T21:26:17.629Z,18.80
2023-09-06T21:28:55.125Z,20.02
2023-09-06T21:31:33.588Z,21.27
2023-09-06T21:34:00.789Z,28.70
2023-09-06T21:36:30.890Z,31.25
2023-09-06T21:39:00.686Z,34.60
2023-09-06T21:41:30.194Z,37.25
2023-09-06T21:44:04.517Z,34.67
2023-09-06T21:46:31.532Z,32.38
2023-09-06T21:48:58.438Z,36.60
2023-09-06T21:51:28.533Z,42.33
2023-09-06T21:53:58.772Z,35.83
2023-09-06T21:56:33.140Z,41.42
2023-09-06T21:59:16.477Z,44.03
2023-09-06T22:01:53.707Z,46.20
2023-09-06T22:04:23.317Z,54.53
2023-09-06T22:06:52.893Z,63.25
2023-09-06T22:09:19.767Z,60.28
2023-09-06T22:11:52.590Z,65.90
2023-09-06T22:14:19.568Z,64.25
2023-09-06T22:16:49.111Z,66.60
2023-09-06T22:19:19.237Z,66.10
2023-09-06T22:21:49.287Z,63.10
2023-09-06T22:24:24.827Z,69.40
2023-09-06T22:26:51.738Z,61.20
2023-09-06T22:29:21.402Z,62.58
2023-09-06T22:31:54.868Z,60.75
2023-09-06T22:34:22.689Z,72.82
2023-09-06T22:36:52.956Z,74.28
2023-09-06T22:39:19.999Z,65.90
2023-09-06T22:41:46.900Z,71.22
2023-09-06T22:44:16.755Z,78.72
2023-09-06T22:46:59.169Z,83.85
2023-09-06T22:49:55.972Z,90.90
2023-09-06T22:52:32.397Z,90.25
2023-09-06T22:54:59.385Z,80.20
2023-09-06T22:57:26.599Z,91.40
2023-09-06T22:59:56.789Z,89.45
2023-09-06T23:02:34.955Z,95.40
2023-09-06T23:05:02.091Z,102.32
2023-09-06T23:07:35.555Z,105.65
2023-09-06T23:10:06.271Z,98.20
2023-09-06T23:12:33.909Z,99.60
2023-09-06T23:15:12.430Z,99.70
2023-09-06T23:17:43.325Z,103.10
2023-09-06T23:20:20.414Z,109.15
2023-09-06T23:22:54.280Z,110.35
2023-09-06T23:28:01.784Z,102.13
2023-09-06T23:30:34.583Z,102.93
2023-09-06T23:33:08.184Z,108.15
2023-09-06T23:35:37.612Z,110.60
2023-09-06T23:38:08.457Z,113.45
2023-09-06T23:40:36.051Z,107.68
2023-09-06T23:43:11.280Z,111.55
2023-09-06T23:45:56.141Z,112.63
2023-09-06T23:48:24.512Z,103.50
2023-09-06T23:50:53.236Z,122.88
2023-09-06T23:53:21.214Z,114.43
2023-09-06T23:55:48.229Z,109.07
2023-09-06T23:58:15.069Z,109.78
